Time;durP1;ratioP1;P1;durP2;ratioP2;P2;SDS_P1;SDS_P2;PMS_P1;PMS_P2;Temp;Humidity;BMP_temperature;BMP_pressure;BME280_temperature;BME280_humidity;BME280_pressure;Samples;Min_cycle;Max_cycle;Signal;HPM_P1;HPM_P2
2022/05/30 00:00:23;;;;;;;2.90;1.80;;;;;;;5.73;84.11;95024.34;5000935;28;20186;-81
2022/05/30 00:02:49;;;;;;;2.00;1.70;;;;;;;5.74;83.48;95021.63;5017247;28;20174;-81
2022/05/30 00:05:15;;;;;;;2.57;1.87;;;;;;;5.70;83.78;95017.69;4998964;28;20189;-80
2022/05/30 00:07:41;;;;;;;4.23;1.77;;;;;;;5.65;83.87;95027.56;5016669;28;20771;-80
2022/05/30 00:10:08;;;;;;;2.80;1.97;;;;;;;5.61;84.23;95021.88;4979423;28;20321;-80
2022/05/30 00:12:34;;;;;;;4.03;1.80;;;;;;;5.60;84.19;95020.25;5013694;28;20182;-80
2022/05/30 00:14:59;;;;;;;2.87;1.73;;;;;;;5.53;83.67;95019.13;4998563;28;20503;-81
2022/05/30 00:17:25;;;;;;;3.73;1.60;;;;;;;5.54;83.86;95014.78;5015633;28;20233;-79
2022/05/30 00:19:51;;;;;;;3.57;1.90;;;;;;;5.45;84.69;95013.00;5015492;28;20198;-81
2022/05/30 00:22:16;;;;;;;2.50;1.60;;;;;;;5.43;85.01;95010.53;5015323;28;20636;-80
2022/05/30 00:24:43;;;;;;;2.33;1.70;;;;;;;5.39;85.16;95007.44;5015089;28;20171;-80
2022/05/30 00:27:09;;;;;;;5.47;2.20;;;;;;;5.34;85.56;95001.03;4998994;28;20253;-79
2022/05/30 00:29:34;;;;;;;3.73;1.80;;;;;;;5.30;85.21;94997.91;4995499;28;20245;-80
2022/05/30 00:32:00;;;;;;;2.23;1.50;;;;;;;5.35;85.00;95000.06;4979360;28;20222;-81
2022/05/30 00:34:26;;;;;;;3.50;2.13;;;;;;;5.31;84.42;95001.28;4979082;28;20182;-81
2022/05/30 00:36:51;;;;;;;2.97;2.20;;;;;;;5.27;85.04;94992.19;4979405;28;20208;-81
2022/05/30 00:39:17;;;;;;;4.17;1.87;;;;;;;5.22;84.82;94994.34;4979873;28;20324;-80
2022/05/30 00:41:42;;;;;;;3.93;1.80;;;;;;;5.21;85.36;94990.09;4995804;28;20179;-81
2022/05/30 00:44:07;;;;;;;3.27;1.83;;;;;;;5.21;85.64;94993.53;4995047;28;20183;-80
2022/05/30 00:46:33;;;;;;;4.13;1.80;;;;;;;5.17;85.94;94991.31;4979224;28;20215;-81
2022/05/30 00:49:00;;;;;;;3.50;1.77;;;;;;;5.15;86.03;94986.31;4995758;28;20206;-80
2022/05/30 00:51:33;;;;;;;3.77;1.87;;;;;;;5.11;84.90;94987.50;4995680;28;20215;-81
2022/05/30 00:54:00;;;;;;;2.70;1.93;;;;;;;5.08;85.74;94982.59;4978612;28;20190;-81
2022/05/30 00:56:30;;;;;;;2.80;1.70;;;;;;;5.07;86.18;94981.78;4979067;28;20266;-80
2022/05/30 00:58:56;;;;;;;2.70;2.10;;;;;;;5.11;85.14;94979.75;4995942;28;20173;-81
2022/05/30 01:01:21;;;;;;;2.43;1.80;;;;;;;5.00;85.88;94975.53;4979135;28;20181;-81
2022/05/30 01:06:38;;;;;;;3.50;1.80;;;;;;;5.02;85.89;94965.09;4997885;28;20693;-79
2022/05/30 01:09:08;;;;;;;4.57;1.80;;;;;;;5.00;85.83;94964.41;4994963;28;20194;-80
2022/05/30 01:12:07;;;;;;;2.80;1.57;;;;;;;5.03;84.88;94967.53;4978047;28;20183;-81
2022/05/30 01:14:35;;;;;;;2.73;1.90;;;;;;;4.95;85.64;94958.84;4913149;29;20199;-81
2022/05/30 01:17:02;;;;;;;2.63;1.83;;;;;;;4.88;85.58;94957.72;4897546;29;20217;-81
2022/05/30 01:19:47;;;;;;;2.73;1.80;;;;;;;4.87;85.17;94961.25;4882181;29;20197;-80
2022/05/30 01:22:41;;;;;;;2.37;1.53;;;;;;;4.93;85.12;94956.38;4897706;29;20182;-81
2022/05/30 01:25:20;;;;;;;4.17;1.93;;;;;;;4.88;84.98;94955.16;4895712;29;20305;-81
2022/05/30 01:28:22;;;;;;;2.57;2.03;;;;;;;4.80;85.31;94948.88;4916596;29;20201;-80
2022/05/30 01:30:48;;;;;;;2.50;1.73;;;;;;;4.77;85.65;94943.16;4916347;29;20227;-81
2022/05/30 01:33:14;;;;;;;4.37;1.90;;;;;;;4.75;85.49;94945.03;4916933;29;20178;-81
2022/05/30 01:35:39;;;;;;;4.53;2.10;;;;;;;4.77;85.69;94944.00;4916001;29;20196;-81
2022/05/30 01:38:04;;;;;;;5.20;1.90;;;;;;;4.81;85.48;94945.38;4916586;29;20664;-81
2022/05/30 01:40:30;;;;;;;3.13;2.00;;;;;;;4.75;85.42;94943.28;4932590;29;20178;-81
2022/05/30 01:42:55;;;;;;;2.10;1.90;;;;;;;4.79;85.96;94941.28;4916407;29;20587;-81
2022/05/30 01:45:22;;;;;;;3.00;1.80;;;;;;;4.70;85.94;94935.16;4916055;29;20186;-80
2022/05/30 01:47:47;;;;;;;2.60;2.13;;;;;;;4.66;86.21;94935.50;4916312;29;20210;-81
2022/05/30 01:50:12;;;;;;;2.53;1.83;;;;;;;4.68;85.99;94939.63;4966919;28;20273;-81
2022/05/30 01:52:38;;;;;;;3.40;1.97;;;;;;;4.59;86.48;94932.63;4994622;28;20180;-80
2022/05/30 01:55:04;;;;;;;2.97;2.63;;;;;;;4.64;86.33;94943.38;5026663;28;20262;-80
2022/05/30 01:57:29;;;;;;;3.17;2.10;;;;;;;4.63;85.87;94931.44;5027102;28;20291;-81
2022/05/30 01:59:54;;;;;;;5.80;2.23;;;;;;;4.59;86.46;94935.19;5010530;28;20186;-80
2022/05/30 02:02:20;;;;;;;2.20;1.60;;;;;;;4.67;86.01;94932.00;5027168;28;20190;-80
2022/05/30 02:04:45;;;;;;;3.10;2.40;;;;;;;4.60;85.76;94936.03;5026622;28;20203;-81
2022/05/30 02:07:10;;;;;;;3.13;2.00;;;;;;;4.58;85.85;94928.44;5010532;28;20681;-81
2022/05/30 02:09:36;;;;;;;3.63;2.20;;;;;;;4.50;86.87;94935.97;5015053;28;20207;-80
2022/05/30 02:12:02;;;;;;;3.77;2.17;;;;;;;4.48;87.12;94935.28;4988352;28;20195;-80
2022/05/30 02:14:27;;;;;;;3.00;2.30;;;;;;;4.46;87.41;94927.69;5012757;28;20561;-80
2022/05/30 02:17:02;;;;;;;3.23;2.20;;;;;;;4.39;87.25;94936.03;5010295;28;20195;-81
2022/05/30 02:19:32;;;;;;;3.90;2.30;;;;;;;4.39;87.29;94938.59;4993727;28;20202;-79
2022/05/30 02:21:58;;;;;;;5.27;2.10;;;;;;;4.39;86.55;94936.03;4993923;28;20175;-79
2022/05/30 02:24:25;;;;;;;2.97;1.73;;;;;;;4.36;86.72;94933.72;5026227;28;20183;-80
2022/05/30 02:26:50;;;;;;;2.33;2.10;;;;;;;4.42;86.08;94928.91;4977582;28;20238;-81
2022/05/30 02:29:15;;;;;;;4.67;2.07;;;;;;;4.35;86.62;94934.66;4977319;28;20838;-80
2022/05/30 02:31:42;;;;;;;2.93;2.63;;;;;;;4.38;86.85;94935.22;5010214;28;20180;-81
2022/05/30 02:36:51;;;;;;;3.77;2.10;;;;;;;4.38;86.53;94936.97;5024899;28;20572;-81
2022/05/30 02:39:20;;;;;;;5.47;2.10;;;;;;;4.37;86.28;94935.34;4994009;28;20175;-81
2022/05/30 02:41:46;;;;;;;2.83;1.90;;;;;;;4.42;86.38;94939.19;5010385;28;20194;-81
2022/05/30 02:44:13;;;;;;;4.57;2.73;;;;;;;4.47;85.98;94937.03;5026340;28;20172;-81
2022/05/30 02:46:38;;;;;;;3.10;1.93;;;;;;;4.41;86.61;94931.56;4977729;28;20195;-80
2022/05/30 02:49:04;;;;;;;2.93;1.90;;;;;;;4.39;86.85;94933.44;5010506;28;20572;-81
2022/05/30 02:51:29;;;;;;;3.10;2.17;;;;;;;4.33;87.19;94931.38;4994273;28;20262;-80
2022/05/30 02:53:54;;;;;;;3.17;2.00;;;;;;;4.32;87.07;94929.75;5009899;28;20279;-81
2022/05/30 02:56:20;;;;;;;4.13;2.90;;;;;;;4.28;87.05;94936.91;5026691;28;20176;-80
2022/05/30 02:58:45;;;;;;;4.30;3.00;;;;;;;4.26;87.12;94934.47;5010067;28;20211;-79
2022/05/30 03:01:11;;;;;;;5.20;2.10;;;;;;;4.20;87.40;94934.94;5010274;28;20262;-80
2022/05/30 03:03:36;;;;;;;3.53;2.27;;;;;;;4.22;87.08;94925.34;5026560;28;20207;-80
2022/05/30 03:06:03;;;;;;;2.63;2.27;;;;;;;4.19;87.68;94930.75;5009741;28;20274;-81
2022/05/30 03:08:28;;;;;;;6.27;2.23;;;;;;;4.14;87.44;94935.44;5011372;28;20191;-79
2022/05/30 03:10:53;;;;;;;6.07;2.30;;;;;;;4.20;86.79;94934.94;5025783;28;20264;-79
2022/05/30 03:13:19;;;;;;;5.10;2.30;;;;;;;4.12;87.55;94934.75;5010144;28;20739;-80
2022/05/30 03:15:44;;;;;;;4.27;2.10;;;;;;;4.11;87.75;94927.97;4976988;28;20579;-80
2022/05/30 03:18:09;;;;;;;2.53;1.97;;;;;;;4.07;87.82;94933.50;4977399;28;20692;-80
2022/05/30 03:20:35;;;;;;;5.40;2.17;;;;;;;4.08;87.48;94940.28;4993484;28;20530;-80
2022/05/30 03:23:00;;;;;;;3.70;2.13;;;;;;;4.09;87.29;94950.41;4995444;28;20183;-79
2022/05/30 03:25:26;;;;;;;2.57;2.13;;;;;;;4.08;87.71;94953.13;5029195;28;20268;-79
2022/05/30 03:27:52;;;;;;;6.73;2.57;;;;;;;4.10;87.71;94946.91;5013444;28;20238;-80
2022/05/30 03:30:18;;;;;;;4.07;1.90;;;;;;;4.20;87.15;94950.38;5013200;28;20215;-79
2022/05/30 03:32:43;;;;;;;4.20;2.43;;;;;;;4.24;86.76;94940.63;5013307;28;20189;-80
2022/05/30 03:35:10;;;;;;;4.07;2.17;;;;;;;4.25;87.59;94944.88;5012716;28;20214;-79
2022/05/30 03:37:37;;;;;;;3.23;2.23;;;;;;;4.26;86.89;94951.63;4996903;28;20282;-79
2022/05/30 03:40:03;;;;;;;2.60;2.23;;;;;;;4.34;86.63;94956.16;5029162;28;20257;-80
2022/05/30 03:42:29;;;;;;;3.97;2.83;;;;;;;4.35;86.74;94952.66;5012594;28;20206;-80
2022/05/30 03:44:54;;;;;;;4.40;2.60;;;;;;;4.37;86.81;94950.75;5012443;28;20660;-80
2022/05/30 03:47:20;;;;;;;5.20;2.33;;;;;;;4.50;86.28;94959.09;5029095;28;20210;-80
2022/05/30 03:49:45;;;;;;;3.33;2.07;;;;;;;4.46;86.04;94955.97;4996348;28;20198;-79
2022/05/30 03:52:10;;;;;;;3.60;2.30;;;;;;;4.51;86.39;94958.19;5029298;28;20686;-80
2022/05/30 03:54:36;;;;;;;5.13;1.90;;;;;;;5.47;84.06;94957.00;5028461;28;20189;-81
2022/05/30 03:57:01;;;;;;;4.77;1.87;;;;;;;6.65;78.78;94955.28;5013908;28;20210;-80
2022/05/30 03:59:26;;;;;;;2.67;1.80;;;;;;;7.34;75.45;94960.13;5013940;28;20695;-80
2022/05/30 04:01:52;;;;;;;4.53;1.93;;;;;;;8.01;70.25;94966.69;5012456;28;20183;-81
2022/05/30 04:04:17;;;;;;;2.43;1.40;;;;;;;7.97;68.47;94959.38;5011786;28;20668;-79
2022/05/30 04:06:43;;;;;;;1.97;1.53;;;;;;;7.87;69.14;94970.59;5028975;28;20203;-81
2022/05/30 04:09:08;;;;;;;2.93;1.47;;;;;;;8.54;68.83;94965.94;5012193;28;20222;-79
2022/05/30 04:11:35;;;;;;;2.53;1.47;;;;;;;9.14;64.28;94963.44;5015473;28;20183;-80
2022/05/30 04:14:00;;;;;;;3.87;1.57;;;;;;;9.66;62.08;94965.97;4995672;28;20594;-79
2022/05/30 04:16:25;;;;;;;4.53;1.37;;;;;;;10.12;60.90;94971.63;4994227;28;20277;-80
2022/05/30 04:18:51;;;;;;;3.10;1.30;;;;;;;9.73;60.89;94964.41;5026843;28;20201;-80
2022/05/30 04:21:16;;;;;;;3.43;1.50;;;;;;;9.43;62.04;94975.25;4980534;28;20187;-78
2022/05/30 04:23:42;;;;;;;4.43;1.90;;;;;;;9.12;64.37;94967.97;4994438;28;20183;-79
2022/05/30 04:26:09;;;;;;;1.80;1.70;;;;;;;10.03;61.08;94973.41;4994804;28;20195;-79
2022/05/30 04:28:35;;;;;;;2.70;1.70;;;;;;;11.30;57.02;94967.78;4979119;28;20191;-78
2022/05/30 04:31:05;;;;;;;2.33;1.60;;;;;;;12.28;52.99;94970.00;4988132;28;20214;-79
2022/05/30 04:33:32;;;;;;;1.53;1.20;;;;;;;13.20;49.85;94978.63;4998057;28;20582;-79
2022/05/30 04:35:58;;;;;;;4.93;2.03;;;;;;;14.46;47.88;94981.09;5013267;28;20270;-79
2022/05/30 04:38:23;;;;;;;1.80;1.40;;;;;;;14.36;46.37;94983.97;5014628;28;20795;-79
2022/05/30 04:40:49;;;;;;;3.40;1.70;;;;;;;14.98;44.39;94974.75;5014580;28;20171;-79
2022/05/30 04:43:14;;;;;;;2.55;1.50;;;;;;;16.06;43.93;94984.72;5014992;28;20178;-79
2022/05/30 04:45:39;;;;;;;2.22;1.20;;;;;;;16.69;41.67;94976.69;5011158;28;20178;-77
2022/05/30 04:48:05;;;;;;;5.55;1.63;;;;;;;17.79;39.48;94993.69;5046783;28;20210;-75
2022/05/30 04:50:30;;;;;;;3.10;1.35;;;;;;;17.41;39.05;94985.63;5047217;28;20206;-75
2022/05/30 04:52:55;;;;;;;2.65;1.30;;;;;;;18.66;37.55;94997.63;5030434;28;20179;-77
2022/05/30 04:55:21;;;;;;;2.05;1.30;;;;;;;17.91;38.85;94989.41;5031437;28;20182;-76
2022/05/30 04:57:49;;;;;;;2.42;1.30;;;;;;;19.40;37.29;94991.63;5032835;28;20232;-79
2022/05/30 05:00:16;;;;;;;5.85;1.83;;;;;;;18.67;36.41;94992.16;5015690;28;20170;-78
2022/05/30 05:02:42;;;;;;;2.90;1.33;;;;;;;20.65;34.21;94999.25;4999069;28;20232;-79
2022/05/30 05:05:07;;;;;;;2.38;1.80;;;;;;;20.13;33.68;94995.41;4998064;28;20591;-76
2022/05/30 05:07:44;;;;;;;1.75;1.45;;;;;;;20.52;33.29;94997.63;4998471;28;20240;-78
2022/05/30 05:10:44;;;;;;;2.67;1.77;;;;;;;19.09;33.75;94999.59;5032546;28;20210;-78
2022/05/30 05:13:10;;;;;;;3.63;1.60;;;;;;;19.67;33.42;95004.59;5032575;28;20212;-80
2022/05/30 05:15:35;;;;;;;3.80;1.92;;;;;;;20.76;31.33;95003.81;4997821;28;20644;-80
2022/05/30 05:18:00;;;;;;;2.90;1.50;;;;;;;21.05;30.27;95009.28;4997045;28;20249;-81
2022/05/30 05:20:26;;;;;;;4.65;1.60;;;;;;;21.30;29.64;95011.78;5014870;28;20182;-81
2022/05/30 05:22:51;;;;;;;4.25;2.10;;;;;;;20.90;30.77;95013.13;4982233;28;20564;-81
2022/05/30 05:25:17;;;;;;;2.03;1.40;;;;;;;20.49;30.59;95013.88;5005324;28;20294;-79
2022/05/30 05:27:42;;;;;;;3.25;1.58;;;;;;;20.24;31.18;95011.31;4997942;28;20697;-79
2022/05/30 05:30:10;;;;;;;3.15;1.50;;;;;;;18.86;32.99;95021.19;4995783;28;20281;-79
2022/05/30 05:32:35;;;;;;;5.53;1.55;;;;;;;19.23;32.89;95019.50;4998858;28;20189;-80
2022/05/30 05:35:01;;;;;;;2.97;1.67;;;;;;;17.62;36.49;95023.97;5015214;28;20208;-79
2022/05/30 05:37:26;;;;;;;2.78;1.60;;;;;;;16.72;37.88;95026.13;4998197;28;20729;-79
2022/05/30 05:39:52;;;;;;;3.00;1.63;;;;;;;19.04;34.33;95028.34;5017446;28;20182;-80
2022/05/30 05:42:17;;;;;;;3.50;1.85;;;;;;;20.17;33.89;95030.88;5027828;28;20257;-80
2022/05/30 05:44:42;;;;;;;4.78;1.95;;;;;;;19.59;34.27;95036.47;5022822;28;20554;-79
2022/05/30 05:47:07;;;;;;;2.13;1.50;;;;;;;21.10;30.88;95033.97;5049125;28;20216;-80
2022/05/30 05:49:33;;;;;;;3.17;1.40;;;;;;;20.40;31.21;95041.53;5034457;28;20209;-81
2022/05/30 05:51:59;;;;;;;2.97;1.70;;;;;;;19.46;33.76;95040.81;5016774;28;20193;-79
2022/05/30 05:54:25;;;;;;;3.40;1.80;;;;;;;20.10;32.91;95041.47;5008848;28;20195;-82
2022/05/30 05:56:51;;;;;;;3.88;1.60;;;;;;;21.18;31.01;95048.69;5051368;28;20312;-80
2022/05/30 05:59:17;;;;;;;1.85;1.48;;;;;;;21.52;30.51;95041.91;5026253;28;20174;-81
2022/05/30 06:01:43;;;;;;;2.00;1.50;;;;;;;20.60;30.90;95046.63;5048823;28;20166;-78
2022/05/30 06:04:10;;;;;;;3.10;1.98;;;;;;;21.15;29.13;95039.38;5038560;28;20201;-80
2022/05/30 06:06:36;;;;;;;4.13;1.58;;;;;;;21.77;28.61;95036.41;5015847;28;20197;-80
2022/05/30 06:09:03;;;;;;;2.13;1.38;;;;;;;20.43;30.61;95042.94;5016974;28;20265;-81
2022/05/30 06:11:29;;;;;;;4.85;1.40;;;;;;;20.02;31.78;95044.38;5015129;28;20174;-79
2022/05/30 06:13:55;;;;;;;6.95;1.70;;;;;;;18.00;35.85;95035.44;4997699;28;20185;-81
2022/05/30 06:16:26;;;;;;;4.18;1.70;;;;;;;18.61;34.30;95052.63;5015113;28;20182;-79
2022/05/30 06:18:53;;;;;;;2.17;1.52;;;;;;;19.14;34.72;95044.47;5006009;28;20189;-80
2022/05/30 06:21:18;;;;;;;4.60;1.77;;;;;;;18.62;35.92;95035.84;5021235;28;20186;-81
2022/05/30 06:23:45;;;;;;;4.28;1.70;;;;;;;19.87;33.58;95046.56;5020278;28;20175;-80
2022/05/30 06:26:11;;;;;;;2.50;1.52;;;;;;;19.59;34.30;95047.00;5015347;28;20274;-80
2022/05/30 06:28:37;;;;;;;3.60;2.08;;;;;;;19.06;34.99;95050.81;5001125;28;20206;-82
2022/05/30 06:31:10;;;;;;;3.65;1.40;;;;;;;20.04;33.85;95051.03;4999561;28;21027;-82
2022/05/30 06:33:36;;;;;;;3.92;1.67;;;;;;;21.00;30.69;95052.19;5015418;28;20768;-80
2022/05/30 06:36:03;;;;;;;2.22;1.70;;;;;;;21.07;30.46;95058.19;5015910;28;20290;-80
2022/05/30 06:38:28;;;;;;;3.60;1.70;;;;;;;20.17;31.82;95050.13;5018125;28;20198;-80
2022/05/30 06:40:54;;;;;;;3.20;1.67;;;;;;;21.08;30.13;95054.50;4995273;28;20178;-80
2022/05/30 06:43:19;;;;;;;2.92;1.48;;;;;;;20.73;31.10;95061.47;5015426;28;20179;-81
2022/05/30 06:45:48;;;;;;;3.25;1.50;;;;;;;21.80;29.78;95062.38;5015345;28;20229;-80
2022/05/30 06:48:14;;;;;;;4.22;1.50;;;;;;;22.38;29.02;95066.88;5026841;28;20218;-81
2022/05/30 06:50:39;;;;;;;3.22;1.50;;;;;;;22.29;29.51;95069.06;5024728;28;20221;-80
2022/05/30 06:53:06;;;;;;;3.13;1.90;;;;;;;21.05;30.19;95064.72;5038333;28;20186;-81
2022/05/30 06:55:31;;;;;;;3.17;1.48;;;;;;;22.01;29.26;95068.94;5009114;28;20183;-81
2022/05/30 06:58:12;;;;;;;4.10;1.50;;;;;;;23.46;27.25;95073.19;5005691;28;20201;-81
2022/05/30 07:00:37;;;;;;;3.00;1.50;;;;;;;22.12;29.22;95076.09;5007520;28;20265;-80
2022/05/30 07:03:02;;;;;;;2.35;1.35;;;;;;;21.77;29.87;95082.16;4999739;28;20261;-81
2022/05/30 07:05:28;;;;;;;3.13;1.25;;;;;;;23.25;27.38;95082.63;5037519;28;20190;-81
2022/05/30 07:07:58;;;;;;;4.60;1.60;;;;;;;22.30;28.68;95088.38;5021205;28;20198;-79
2022/05/30 07:10:25;;;;;;;3.38;1.40;;;;;;;21.32;30.44;95081.03;5052688;28;20223;-80
2022/05/30 07:12:51;;;;;;;3.13;1.58;;;;;;;21.30;31.17;95080.44;5022147;28;20202;-80
2022/05/30 07:15:16;;;;;;;3.65;1.45;;;;;;;19.83;31.81;95085.72;4999943;28;20347;-81
2022/05/30 07:17:42;;;;;;;1.83;1.17;;;;;;;22.06;29.58;95077.78;5036683;28;20347;-84
2022/05/30 07:20:08;;;;;;;3.10;1.23;;;;;;;23.58;26.92;95086.34;5022836;28;20182;-83
2022/05/30 07:22:33;;;;;;;2.35;1.23;;;;;;;20.75;30.80;95086.59;5004011;28;20193;-83
2022/05/30 07:24:59;;;;;;;5.70;1.70;;;;;;;21.19;28.91;95090.69;5003178;28;20257;-82
2022/05/30 07:27:24;;;;;;;4.57;1.50;;;;;;;21.48;29.26;95094.38;4997545;28;20743;-83
2022/05/30 07:29:49;;;;;;;2.75;1.33;;;;;;;22.99;26.77;95091.16;5001022;28;20211;-84
2022/05/30 07:32:15;;;;;;;2.63;1.38;;;;;;;20.29;30.67;95087.09;5035875;28;20193;-82
2022/05/30 07:34:40;;;;;;;2.47;1.48;;;;;;;19.65;32.46;95091.75;5025284;28;20203;-82
2022/05/30 07:37:06;;;;;;;3.45;1.77;;;;;;;20.54;30.29;95087.88;4998678;28;20246;-81
2022/05/30 07:39:35;;;;;;;2.97;1.42;;;;;;;20.26;32.33;95092.81;5018228;28;20617;-81
2022/05/30 07:42:00;;;;;;;3.97;1.35;;;;;;;21.69;30.07;95093.03;5036062;28;20190;-83
2022/05/30 07:44:26;;;;;;;3.83;1.33;;;;;;;20.65;31.01;95091.59;5020038;28;20181;-81
2022/05/30 07:46:51;;;;;;;4.10;1.40;;;;;;;20.96;30.92;95087.97;5014140;28;20195;-82
2022/05/30 07:49:16;;;;;;;5.22;1.67;;;;;;;19.61;32.31;95089.75;5012173;28;20916;-82
2022/05/30 07:51:43;;;;;;;2.45;1.67;;;;;;;17.96;34.84;95093.88;5038560;28;20178;-83
2022/05/30 07:54:08;;;;;;;2.50;1.60;;;;;;;18.65;34.38;95096.75;5020358;28;20170;-83
2022/05/30 07:56:34;;;;;;;3.42;1.90;;;;;;;19.12;33.50;95089.44;5019144;28;20210;-82
2022/05/30 07:58:59;;;;;;;3.88;1.85;;;;;;;18.15;36.31;95089.59;5020039;28;20201;-82
2022/05/30 08:01:25;;;;;;;3.95;1.60;;;;;;;18.62;33.10;95096.31;5019376;28;20186;-82
2022/05/30 08:03:53;;;;;;;5.55;1.77;;;;;;;19.20;33.39;95089.19;5017742;28;20175;-84
2022/05/30 08:06:25;;;;;;;4.95;1.58;;;;;;;19.35;33.40;95091.53;5038123;28;20194;-83
2022/05/30 08:08:51;;;;;;;1.88;1.65;;;;;;;18.01;38.05;95092.22;5016534;28;20331;-82
2022/05/30 08:11:17;;;;;;;3.90;1.85;;;;;;;16.31;41.20;95087.22;5018851;28;20711;-83
2022/05/30 08:13:43;;;;;;;6.33;1.80;;;;;;;15.52;44.39;95092.72;5036486;28;20200;-83
2022/05/30 08:16:08;;;;;;;6.30;2.00;;;;;;;15.19;46.92;95089.78;5023358;28;20194;-83
2022/05/30 08:18:34;;;;;;;4.07;2.00;;;;;;;15.44;44.89;95090.22;5016748;28;20199;-81
2022/05/30 08:21:01;;;;;;;3.10;1.83;;;;;;;15.88;45.82;95091.00;5017812;28;20229;-82
2022/05/30 08:23:27;;;;;;;4.30;2.20;;;;;;;16.65;42.21;95083.75;5021405;28;20180;-82
2022/05/30 08:25:53;;;;;;;3.43;1.90;;;;;;;15.67;44.94;95091.84;5011882;28;20201;-83
2022/05/30 08:28:19;;;;;;;2.83;1.90;;;;;;;15.61;46.25;95089.97;5032447;28;20203;-83
2022/05/30 08:30:44;;;;;;;4.23;1.83;;;;;;;16.18;43.97;95091.59;5018366;28;20218;-83
2022/05/30 08:33:11;;;;;;;4.67;2.37;;;;;;;15.62;43.49;95097.66;4996975;28;20194;-83
2022/05/30 08:35:37;;;;;;;3.23;1.90;;;;;;;14.75;46.24;95095.16;4998205;28;20221;-83
2022/05/30 08:38:02;;;;;;;3.80;1.80;;;;;;;14.56;47.16;95093.13;5006867;28;20194;-82
2022/05/30 08:43:28;;;;;;;6.00;2.03;;;;;;;13.70;48.59;95089.34;5037170;28;20243;-82
2022/05/30 08:46:19;;;;;;;4.97;1.93;;;;;;;13.20;50.99;95096.78;5019844;28;20180;-81
2022/05/30 08:49:10;;;;;;;4.70;2.03;;;;;;;13.96;49.69;95088.91;4985408;28;20567;-82
2022/05/30 08:51:49;;;;;;;3.53;1.73;;;;;;;13.81;48.51;95084.50;5022932;28;20206;-82
2022/05/30 08:54:26;;;;;;;5.40;1.97;;;;;;;14.10;48.03;95095.94;5000259;28;20636;-83
2022/05/30 08:56:53;;;;;;;3.40;1.70;;;;;;;13.66;49.89;95094.09;5023752;28;20232;-83
2022/05/30 08:59:33;;;;;;;3.97;2.00;;;;;;;14.08;48.12;95087.47;5019041;28;20239;-82
2022/05/30 09:02:16;;;;;;;5.37;1.83;;;;;;;13.68;48.74;95093.91;5033642;28;20213;-78
2022/05/30 09:04:47;;;;;;;7.20;2.20;;;;;;;13.25;51.03;95099.69;5034147;28;20223;-77
2022/05/30 09:07:20;;;;;;;4.20;1.97;;;;;;;13.65;48.87;95096.88;5023904;28;20209;-77
2022/05/30 09:10:04;;;;;;;2.03;1.60;;;;;;;13.64;48.61;95096.09;5014134;28;20217;-77
2022/05/30 09:12:32;;;;;;;5.57;1.93;;;;;;;13.72;49.21;95096.00;5045961;28;20261;-78
2022/05/30 09:15:02;;;;;;;4.67;1.73;;;;;;;13.87;48.30;95089.00;5038680;28;20190;-75
2022/05/30 09:17:33;;;;;;;3.77;2.10;;;;;;;13.77;49.71;95090.25;4996652;28;20207;-76
2022/05/30 09:20:03;;;;;;;3.93;2.00;;;;;;;13.75;51.28;95098.25;5013655;28;20225;-77
2022/05/30 09:22:28;;;;;;;4.53;2.10;;;;;;;14.04;49.91;95102.69;5014107;28;20236;-77
2022/05/30 09:27:38;;;;;;;3.60;1.90;;;;;;;13.67;49.77;95100.13;5032399;28;20229;-77
2022/05/30 09:30:05;;;;;;;3.13;2.00;;;;;;;14.06;49.92;95094.69;5044029;28;20210;-78
2022/05/30 09:32:37;;;;;;;3.30;1.70;;;;;;;13.59;48.13;95099.22;5016017;28;20193;-78
2022/05/30 09:35:24;;;;;;;4.17;1.80;;;;;;;13.29;50.00;95095.72;5051358;28;20184;-77
2022/05/30 09:38:19;;;;;;;2.53;2.13;;;;;;;13.28;48.27;95095.91;5013845;28;20203;-79
2022/05/30 09:40:48;;;;;;;3.43;1.93;;;;;;;13.29;47.14;95097.53;5016085;28;20209;-78
2022/05/30 09:43:24;;;;;;;2.97;2.10;;;;;;;12.83;50.66;95100.09;5004314;28;20210;-78
2022/05/30 09:45:49;;;;;;;5.03;2.23;;;;;;;13.40;48.67;95097.09;4997975;28;20182;-78
2022/05/30 09:48:20;;;;;;;3.50;2.17;;;;;;;13.65;48.43;95102.91;5014659;28;20209;-78
2022/05/30 09:50:49;;;;;;;4.30;1.83;;;;;;;13.29;49.02;95108.75;5014907;28;20210;-78
2022/05/30 09:53:41;;;;;;;3.03;2.30;;;;;;;12.99;50.00;95101.78;5044351;28;20190;-78
2022/05/30 09:56:07;;;;;;;4.10;1.90;;;;;;;13.13;50.09;95103.63;5011447;28;20552;-79
2022/05/30 09:58:59;;;;;;;2.30;1.90;;;;;;;13.25;47.99;95104.91;4995218;28;20225;-78
2022/05/30 10:01:27;;;;;;;2.47;1.50;;;;;;;13.35;48.93;95106.44;5014191;28;20171;-76
2022/05/30 10:03:56;;;;;;;4.30;1.93;;;;;;;13.05;47.68;95101.06;5004260;28;20168;-76
2022/05/30 10:06:26;;;;;;;5.47;2.10;;;;;;;13.37;47.43;95101.88;5046637;28;20205;-76
2022/05/30 10:09:13;;;;;;;4.50;2.07;;;;;;;13.48;46.59;95112.69;5022838;28;20214;-76
2022/05/30 10:11:39;;;;;;;5.20;1.90;;;;;;;13.22;46.95;95107.03;5026110;28;20197;-79
2022/05/30 10:14:32;;;;;;;8.47;2.27;;;;;;;13.42;47.50;95107.34;5015997;28;20620;-79
2022/05/30 10:17:10;;;;;;;4.03;1.50;;;;;;;14.34;44.20;95107.91;5019382;28;20198;-80
2022/05/30 10:19:39;;;;;;;4.13;2.13;;;;;;;14.86;41.77;95113.00;5019015;28;20190;-79
2022/05/30 10:28:31;;;;;;;2.47;1.53;;;;;;;15.71;40.52;95109.59;5018478;28;20239;-79
2022/05/30 10:31:18;;;;;;;4.37;1.87;;;;;;;16.06;38.64;95109.63;5003681;28;20699;-79
2022/05/30 10:34:27;;;;;;;3.50;1.57;;;;;;;16.90;37.72;95112.91;5039760;28;20202;-79
2022/05/30 10:36:56;;;;;;;1.80;1.30;;;;;;;17.65;37.02;95108.38;5033048;28;20261;-78
2022/05/30 10:39:50;;;;;;;2.53;1.63;;;;;;;17.82;33.72;95116.69;5021988;28;20183;-79
2022/05/30 10:42:29;;;;;;;4.25;1.50;;;;;;;17.10;34.02;95120.81;5013355;28;20609;-78
2022/05/30 10:45:21;;;;;;;5.20;1.90;;;;;;;17.05;32.91;95115.38;5048318;28;20655;-79
2022/05/30 10:47:49;;;;;;;3.60;1.75;;;;;;;16.00;34.59;95119.09;5021697;28;20691;-79
2022/05/30 10:50:42;;;;;;;5.07;1.43;;;;;;;16.21;35.91;95114.78;5015468;28;20206;-79
2022/05/30 10:53:15;;;;;;;2.53;1.30;;;;;;;17.09;30.45;95116.59;5000982;28;20190;-77
2022/05/30 10:55:43;;;;;;;4.57;1.65;;;;;;;17.27;32.57;95122.06;5019925;28;20209;-77
2022/05/30 10:58:19;;;;;;;3.20;1.70;;;;;;;16.26;31.08;95115.03;5014627;28;20259;-79
2022/05/30 11:00:50;;;;;;;3.35;1.48;;;;;;;16.21;31.22;95112.97;5011996;28;20201;-79
2022/05/30 11:03:40;;;;;;;2.67;1.52;;;;;;;16.56;32.87;95113.75;4996789;28;20661;-78
2022/05/30 11:06:10;;;;;;;4.43;1.30;;;;;;;16.79;31.96;95131.84;5003556;28;20194;-81
2022/05/30 11:09:04;;;;;;;4.43;1.42;;;;;;;16.29;36.33;95115.44;5002724;28;20217;-81
2022/05/30 11:12:00;;;;;;;5.85;1.70;;;;;;;16.20;32.71;95113.16;4994091;28;20614;-82
2022/05/30 11:14:34;;;;;;;2.00;1.77;;;;;;;16.67;32.64;95115.00;5000742;28;20189;-82
2022/05/30 11:17:10;;;;;;;2.20;1.40;;;;;;;16.97;33.78;95112.94;5030997;28;20209;-81
2022/05/30 11:19:46;;;;;;;3.88;1.60;;;;;;;16.86;31.84;95114.28;5037538;28;20209;-82
2022/05/30 11:22:41;;;;;;;2.83;1.73;;;;;;;17.11;33.80;95119.00;5018369;28;20251;-81
2022/05/30 11:25:17;;;;;;;2.63;1.55;;;;;;;17.28;34.46;95131.56;5004356;28;20551;-82
2022/05/30 11:27:49;;;;;;;4.10;1.50;;;;;;;16.51;32.16;95126.63;5024389;28;20262;-81
2022/05/30 11:30:35;;;;;;;3.13;1.65;;;;;;;16.29;33.99;95125.91;5022981;28;20568;-80
2022/05/30 11:33:10;;;;;;;3.05;1.80;;;;;;;16.51;33.92;95124.00;5016990;28;20254;-81
2022/05/30 11:35:59;;;;;;;4.65;1.70;;;;;;;15.96;36.59;95128.31;5049179;28;20196;-81
2022/05/30 11:38:39;;;;;;;2.88;1.60;;;;;;;16.15;35.99;95143.34;5021624;28;20309;-82
2022/05/30 11:41:24;;;;;;;4.95;2.50;;;;;;;16.45;35.24;95140.53;5005628;28;20178;-81
2022/05/30 11:44:18;;;;;;;2.63;1.60;;;;;;;16.20;34.94;95139.34;5019419;28;20194;-80
2022/05/30 11:46:58;;;;;;;2.57;1.47;;;;;;;16.28;35.84;95145.25;5015666;28;20255;-81
2022/05/30 11:49:32;;;;;;;3.70;2.00;;;;;;;15.85;35.47;95139.31;5048423;28;20197;-80
2022/05/30 11:52:07;;;;;;;4.85;1.85;;;;;;;15.68;36.42;95146.63;5007749;28;20217;-81
2022/05/30 11:54:36;;;;;;;2.73;1.93;;;;;;;15.21;37.33;95144.56;5017878;28;20186;-81
2022/05/30 11:57:10;;;;;;;5.93;2.07;;;;;;;14.96;38.85;95144.88;5008857;28;20210;-81
2022/05/30 11:59:59;;;;;;;2.87;1.60;;;;;;;15.77;38.04;95137.63;4998380;28;20431;-81
2022/05/30 12:02:34;;;;;;;3.73;2.17;;;;;;;16.06;35.75;95143.69;5041199;28;20237;-81
2022/05/30 12:05:36;;;;;;;4.50;2.20;;;;;;;16.55;35.77;95132.31;5004313;28;20179;-82